Flight Track Log - Related Links

Times and Time Zones

All times are in EDT time to prevent confusion due to time zone crossing. See the EGF2982 flight status page for this flight to view local times or setup timezone preferences in your user account.


Time Position Orientation Groundspeed Altitude Reporting Facility
EDT Latitude Longitude Course Direction KTS MPH feet Rate Location/Type
Sun 07:44:48 PM 32.8667 -97.0500 145° Southeast 175 201 2,100  Level Dallas / Fort Worth TRACON
Sun 07:45:48 PM 32.8167 -97.0500 180° South 188 216 5,100 2,427 Climbing Dallas / Fort Worth TRACON
Sun 07:46:00 PM 32.6513 -97.1461 157° South  Level Estimated
Sun 07:47:00 PM 32.5695 -97.1820 214° Southwest  Level Estimated
Sun 07:47:46 PM 32.6992 -97.0581 183° South 211 243 9,300  Level Fort Worth Center
Sun 07:48:00 PM 32.4876 -97.2179 205° Southwest  Level Estimated
Sun 07:48:44 PM 32.6492 -97.0728 194° South 217 250 10,800  Level Fort Worth Center
Sun 07:49:00 PM 32.4164 -97.1582 145° Southeast  Level FlightAware Approximate
Sun 07:49:46 PM 32.5719 -97.1003 197° South 246 283 12,000  Level Fort Worth Center
Sun 07:50:44 PM 32.4969 -97.1203 193° South 290 334 13,000 1,576 Climbing Fort Worth Center
Sun 07:51:44 PM 32.4094 -97.1500 196° South 307 353 15,100 1,488 Climbing Fort Worth Center
Sun 07:52:45 PM 32.3300 -97.1725 193° South 312 359 16,000 393 Climbing Fort Worth Center
Sun 07:53:46 PM 32.2403 -97.2367 211° Southwest 332 382 15,900 50 Descending Fort Worth Center
Sun 07:54:46 PM 32.1819 -97.2981 222° Southwest 337 388 16,100 101 Climbing Fort Worth Center
Sun 07:55:45 PM 32.1047 -97.3742 220° Southwest 331 381 16,100  Level Fort Worth Center
Sun 07:56:46 PM 32.0464 -97.4356 222° Southwest 323 372 16,100  Level Fort Worth Center
Sun 07:57:47 PM 31.9731 -97.5089 220° Southwest 323 372 16,100 -508 Level Fort Worth Center
Sun 07:58:44 PM 31.9083 -97.5725 220° Southwest 316 364 15,100 -1,357 Descending Fort Worth Center
Sun 07:59:42 PM 31.8478 -97.6358 222° Southwest 294 338 13,500 -1,125 Descending Fort Worth Center
Sun 08:00:36 PM 31.7975 -97.6847 220° Southwest 270 311 13,000 -261 Descending Fort Worth Center
Sun 08:01:37 PM 31.7369 -97.7431 219° Southwest 266 306 13,000 -198 Level Fort Worth Center
Sun 08:02:37 PM 31.6825 -97.7967 220° Southwest 269 310 12,600 -1,190 Descending Fort Worth Center
Sun 08:03:38 PM 31.6281 -97.8525 221° Southwest 255 293 10,600 -1,983 Descending Fort Worth Center
Sun 08:04:38 PM 31.5672 -97.8961 211° Southwest 253 291 8,600 -1,983 Descending Fort Worth Center
Sun 08:05:39 PM 31.4983 -97.8933 178° South 257 296 6,600 -1,756 Descending Fort Worth Center
Sun 08:06:41 PM 31.4253 -97.8906 178° South 253 291 5,000 -1,415 Descending Fort Worth Center
Sun 08:07:42 PM 31.3647 -97.8878 178° South 231 266 3,700 -960 Descending Fort Worth Center
Sun 08:08:46 PM 31.3064 -97.8850 178° South 225 259 3,000 -295 Descending Fort Worth Center
Sun 08:09:44 PM 31.2478 -97.8800 176° South 219 252 3,100 103 Climbing Fort Worth Center

Login

Don't have an account? Register now (free) for customized features, flight alerts, and more!